메인 페이지
METAR-TAF:

METAR-TAF

공항 :

튀니스 카르타고 국제공항

튀니스, 튀니지

위도: 36-50N, 경도: 010-14E, 고도: 3m

현재 날씨관측

예보는 38분 전, 04:00시(UTC)에 발표되었습니다.
북북서3kt
온도 16°C
습도 94%
기압 1013 hPa
시정 10km 이상
고도 2000ft 상공 구름 보통

METAR: DTTA 220400Z 33003KT 9999 SCT020 16/15 Q1013 NOSIG

시각: 05:38 (04:38 UTC)

예보

예보는 5 시간 38분 전, 23:00시(UTC)에 발표되었습니다.
예보 대상 시간: 22일 00시부터 22일 24시까지 (UTC)
10kt
시정 10km 이상
고도 2000ft 상공 구름 조금
고도 3300ft 상공 구름 보통
확률 40% :
일시적
22일 11시부터 22일 20시까지 (UTC)
고도 2000ft 상공 구름 보통, 타워링 적운.
고도 3000ft 상공 구름 보통, 적란운.
뇌우, 강한비
전환 중
22일 17시부터 22일 19시까지 (UTC)
서북서10kt

TAF: DTTA 212300Z 2200/2224 01010KT 9999 FEW020 SCT033 PROB40 TEMPO 2211/2220 +TSRA SCT020TCU SCT030CB BECMG 2217/2219 29010KT

4,000개 이상의 공항 관측 자료 및 예보 (METAR 및 TAF 보고).

지도상에서 검색 가능한 기상관측소가 노란 점과 빨간 점으로 표시되어 있습니다.

기상관측소 명을 보려면 표시 위로 마우스를 이동하세요.

날씨 관측과 예보를 보려면 클릭하세요.

지도 변경 : 확대하려면 엑스 표시가 있는 녹색 버튼, 축소하려면 빼기 표시가 있는 녹색 버튼, 다음 페이지의 지도를 보려면 녹색 화살표를 클릭하세요.


METAR-TAF: